Time;durP1;ratioP1;P1;durP2;ratioP2;P2;SDS_P1;SDS_P2;PMS_P1;PMS_P2;Temp;Humidity;BMP_temperature;BMP_pressure;BME280_temperature;BME280_humidity;BME280_pressure;Samples;Min_cycle;Max_cycle;Signal;HPM_P1;HPM_P2
2021/05/23 00:00:33;;;;;;;;;;;;;;;16.16;49.33;100473.72;5032451;27;97589;-84
2021/05/23 00:02:59;;;;;;;;;;;;;;;16.05;49.42;100462.91;5037347;28;97296;-85
2021/05/23 00:05:28;;;;;;;;;;;;;;;16.38;48.70;100471.44;5038720;27;99321;-85
2021/05/23 00:07:55;;;;;;;;;;;;;;;16.22;49.01;100463.53;5040338;27;98867;-83
2021/05/23 00:10:22;;;;;;;;;;;;;;;16.45;48.58;100464.75;5043165;27;97604;-84
2021/05/23 00:12:48;;;;;;;;;;;;;;;16.49;48.42;100462.72;5046435;27;97348;-85
2021/05/23 00:15:16;;;;;;;;;;;;;;;16.54;48.34;100466.81;5041343;27;99555;-84
2021/05/23 00:17:42;;;;;;;;;;;;;;;16.34;48.99;100460.09;5045522;27;98919;-84
2021/05/23 00:20:08;;;;;;;;;;;;;;;16.53;48.52;100474.94;5049168;27;96841;-83
2021/05/23 00:22:35;;;;;;;;;;;;;;;16.39;48.56;100475.81;5052437;27;97564;-84
2021/05/23 00:25:00;;;;;;;;;;;;;;;16.41;48.46;100481.06;5046216;28;100819;-84
2021/05/23 00:27:26;;;;;;;;;;;;;;;16.12;49.40;100481.06;5040605;27;98133;-84
2021/05/23 00:29:52;;;;;;;;;;;;;;;15.79;49.75;100480.50;5037988;27;97075;-85
2021/05/23 00:32:19;;;;;;;;;;;;;;;15.75;50.33;100486.97;5043365;28;96806;-84
2021/05/23 00:34:45;;;;;;;;;;;;;;;16.10;49.67;100482.13;5037978;28;101384;-84
2021/05/23 00:37:11;;;;;;;;;;;;;;;16.04;49.66;100478.03;5032446;27;98859;-85
2021/05/23 00:39:38;;;;;;;;;;;;;;;15.54;50.70;100483.78;5038299;28;96755;-83
2021/05/23 00:42:04;;;;;;;;;;;;;;;15.89;50.10;100486.97;5042094;28;97363;-84
2021/05/23 00:44:30;;;;;;;;;;;;;;;16.10;49.56;100490.97;5039565;28;99085;-83
2021/05/23 00:46:56;;;;;;;;;;;;;;;15.87;49.82;100492.41;5039613;28;98927;-83
2021/05/23 00:49:22;;;;;;;;;;;;;;;15.85;49.61;100482.78;5040827;27;98311;-82
2021/05/23 00:51:48;;;;;;;;;;;;;;;15.75;50.09;100486.97;5046556;27;96886;-84
2021/05/23 00:54:14;;;;;;;;;;;;;;;15.79;50.18;100492.00;5046120;27;98360;-83
2021/05/23 00:56:42;;;;;;;;;;;;;;;15.61;50.65;100478.97;5040123;28;98776;-84
2021/05/23 00:59:09;;;;;;;;;;;;;;;15.81;49.99;100491.94;5037563;27;96836;-84
2021/05/23 01:02:02;;;;;;;;;;;;;;;16.11;49.21;100490.03;5021330;27;96786;-83
2021/05/23 01:04:28;;;;;;;;;;;;;;;15.79;49.93;100493.81;5034830;27;98042;-84
2021/05/23 01:06:53;;;;;;;;;;;;;;;15.79;49.91;100493.81;5036610;27;98845;-83
2021/05/23 01:09:19;;;;;;;;;;;;;;;15.58;50.60;100513.75;5036256;27;96904;-84
2021/05/23 01:12:00;;;;;;;;;;;;;;;15.69;50.40;100512.16;5039599;28;96915;-83
2021/05/23 01:14:44;;;;;;;;;;;;;;;15.36;51.04;100514.16;5043726;28;97831;-82
2021/05/23 01:17:12;;;;;;;;;;;;;;;15.85;49.87;100512.09;5043415;28;100494;-81
2021/05/23 01:19:45;;;;;;;;;;;;;;;15.70;50.39;100523.66;5040120;27;97210;-83
2021/05/23 01:22:12;;;;;;;;;;;;;;;15.81;49.92;100514.09;5028057;28;97071;-83
2021/05/23 01:24:39;;;;;;;;;;;;;;;16.05;49.34;100521.53;5035922;28;98974;-84
2021/05/23 01:27:06;;;;;;;;;;;;;;;15.85;49.74;100515.59;5035806;27;98880;-84
2021/05/23 01:29:33;;;;;;;;;;;;;;;16.05;49.54;100517.06;5034207;28;97077;-84
2021/05/23 01:31:59;;;;;;;;;;;;;;;16.03;49.41;100524.28;5034109;27;96840;-84
2021/05/23 01:34:25;;;;;;;;;;;;;;;16.24;48.75;100516.75;5031213;27;97834;-83
2021/05/23 01:36:53;;;;;;;;;;;;;;;16.09;49.01;100518.56;5038450;28;99229;-84
2021/05/23 01:39:19;;;;;;;;;;;;;;;15.63;50.14;100520.50;5045456;27;96587;-83
2021/05/23 01:41:45;;;;;;;;;;;;;;;15.91;49.52;100525.91;5056867;27;96892;-83
2021/05/23 01:44:15;;;;;;;;;;;;;;;15.88;49.52;100526.06;5050834;27;97847;-83
2021/05/23 01:46:41;;;;;;;;;;;;;;;15.94;49.70;100527.53;5037542;28;98920;-81
2021/05/23 01:49:08;;;;;;;;;;;;;;;15.94;49.72;100530.19;5034515;27;96817;-82
2021/05/23 01:51:34;;;;;;;;;;;;;;;15.93;49.20;100520.47;5037782;28;96970;-82
2021/05/23 01:54:00;;;;;;;;;;;;;;;16.15;48.94;100528.00;5030494;27;98851;-83
2021/05/23 01:56:26;;;;;;;;;;;;;;;16.11;49.18;100524.66;5039418;28;98708;-83
2021/05/23 01:58:52;;;;;;;;;;;;;;;16.08;49.02;100534.69;5039777;27;96609;-83
2021/05/23 02:01:19;;;;;;;;;;;;;;;16.13;48.89;100536.09;5046502;27;97554;-83
2021/05/23 02:03:45;;;;;;;;;;;;;;;16.10;48.94;100538.09;5044869;28;97903;-84
2021/05/23 02:06:11;;;;;;;;;;;;;;;15.87;49.41;100535.03;5038881;27;98910;-84
2021/05/23 02:08:37;;;;;;;;;;;;;;;15.89;49.63;100529.59;5037382;28;96896;-83
2021/05/23 02:11:05;;;;;;;;;;;;;;;15.70;49.95;100523.66;5037045;28;97370;-84
2021/05/23 02:13:31;;;;;;;;;;;;;;;15.67;49.99;100531.84;5038570;27;99124;-84
2021/05/23 02:15:58;;;;;;;;;;;;;;;15.85;49.55;100530.75;5025050;27;98813;-84
2021/05/23 02:18:24;;;;;;;;;;;;;;;15.78;49.89;100529.38;5036504;27;97050;-84
2021/05/23 02:20:50;;;;;;;;;;;;;;;15.80;49.72;100528.38;5038303;27;97045;-83
2021/05/23 02:23:17;;;;;;;;;;;;;;;15.72;49.63;100529.75;5035682;27;98877;-84
2021/05/23 02:25:43;;;;;;;;;;;;;;;15.51;50.29;100532.72;5035062;27;97753;-83
2021/05/23 02:28:09;;;;;;;;;;;;;;;15.61;50.04;100532.22;5037907;27;96961;-84
2021/05/23 02:30:36;;;;;;;;;;;;;;;15.90;49.31;100524.16;5037733;27;97099;-83
2021/05/23 02:33:04;;;;;;;;;;;;;;;15.92;49.32;100524.09;5033516;27;98845;-83
2021/05/23 02:35:32;;;;;;;;;;;;;;;15.88;49.32;100525.25;5034162;28;98918;-84
2021/05/23 02:37:58;;;;;;;;;;;;;;;15.55;49.80;100533.44;5039259;27;97123;-84
2021/05/23 02:40:27;;;;;;;;;;;;;;;15.64;49.83;100530.22;5041700;28;96830;-84
2021/05/23 02:42:53;;;;;;;;;;;;;;;15.64;49.91;100534.69;5042877;27;99239;-84
2021/05/23 02:45:19;;;;;;;;;;;;;;;15.69;49.77;100541.44;5050769;27;97778;-83
2021/05/23 02:47:45;;;;;;;;;;;;;;;15.73;49.70;100542.13;5053580;27;96802;-83
2021/05/23 02:50:12;;;;;;;;;;;;;;;15.69;49.58;100536.13;5050170;27;97096;-83
2021/05/23 02:52:39;;;;;;;;;;;;;;;15.64;49.65;100537.34;5053187;27;98190;-84
2021/05/23 02:55:06;;;;;;;;;;;;;;;15.61;49.79;100542.88;5050123;27;97823;-84
2021/05/23 02:57:32;;;;;;;;;;;;;;;15.43;50.06;100544.75;5056097;28;96605;-84
2021/05/23 02:59:58;;;;;;;;;;;;;;;15.53;49.82;100549.50;5053159;28;96721;-84
2021/05/23 03:02:23;;;;;;;;;;;;;;;15.54;49.86;100543.25;5043469;27;97856;-84
2021/05/23 03:04:49;;;;;;;;;;;;;;;15.45;50.10;100543.72;5033443;28;98779;-84
2021/05/23 03:07:15;;;;;;;;;;;;;;;15.46;50.17;100550.78;5031921;28;97571;-84
2021/05/23 03:09:42;;;;;;;;;;;;;;;15.71;49.47;100544.88;5037722;27;96826;-84
2021/05/23 03:12:08;;;;;;;;;;;;;;;15.46;50.16;100550.78;5039317;27;98787;-84
2021/05/23 03:14:34;;;;;;;;;;;;;;;15.62;49.96;100553.41;5041630;27;97709;-84
2021/05/23 03:16:59;;;;;;;;;;;;;;;15.81;49.53;100555.88;5030378;28;98485;-84
2021/05/23 03:19:25;;;;;;;;;;;;;;;15.97;49.13;100551.31;5028836;27;96919;-84
2021/05/23 03:21:51;;;;;;;;;;;;;;;16.09;48.49;100553.22;5035737;27;98516;-84
2021/05/23 03:24:17;;;;;;;;;;;;;;;16.02;48.84;100546.53;5038352;27;98894;-84
2021/05/23 03:26:43;;;;;;;;;;;;;;;15.81;49.17;100553.19;5034601;28;96782;-85
2021/05/23 03:29:09;;;;;;;;;;;;;;;16.10;48.75;100552.28;5037837;28;96806;-84
2021/05/23 03:31:35;;;;;;;;;;;;;;;15.88;49.04;100555.38;5036550;27;99455;-84
2021/05/23 03:34:01;;;;;;;;;;;;;;;15.78;49.52;100562.22;5035042;28;101688;-84
2021/05/23 03:36:27;;;;;;;;;;;;;;;16.06;48.94;100556.09;5038323;28;96795;-84
2021/05/23 03:38:52;;;;;;;;;;;;;;;15.94;49.03;100560.38;5037783;27;97121;-84
2021/05/23 03:41:18;;;;;;;;;;;;;;;16.18;48.40;100555.34;5048213;27;96844;-83
2021/05/23 03:43:45;;;;;;;;;;;;;;;16.14;48.52;100548.50;5057270;27;97800;-82
2021/05/23 03:46:11;;;;;;;;;;;;;;;16.18;48.74;100557.13;5057317;28;96498;-82
2021/05/23 03:48:36;;;;;;;;;;;;;;;16.05;48.93;100551.69;5043894;27;96529;-82
2021/05/23 03:51:02;;;;;;;;;;;;;;;16.32;48.49;100557.16;5044824;28;97641;-82
2021/05/23 03:53:28;;;;;;;;;;;;;;;16.10;49.08;100562.94;5048935;27;96776;-82
2021/05/23 03:55:54;;;;;;;;;;;;;;;16.23;48.75;100557.69;5052207;27;96828;-82
2021/05/23 03:58:20;;;;;;;;;;;;;;;16.08;49.33;100572.81;5050346;27;96963;-83
2021/05/23 04:00:46;;;;;;;;;;;;;;;16.26;48.95;100568.19;5049854;27;98097;-82
2021/05/23 04:03:12;;;;;;;;;;;;;;;16.37;48.96;100565.72;5055557;27;98057;-82
2021/05/23 04:05:38;;;;;;;;;;;;;;;16.52;48.32;100567.44;5051242;27;97286;-81
2021/05/23 04:08:04;;;;;;;;;;;;;;;16.30;48.82;100572.38;5053834;27;96656;-82
2021/05/23 04:10:33;;;;;;;;;;;;;;;16.56;48.32;100576.09;5032491;28;97840;-82
2021/05/23 04:13:00;;;;;;;;;;;;;;;16.33;48.88;100581.06;5041826;27;99141;-83
2021/05/23 04:15:26;;;;;;;;;;;;;;;16.15;49.34;100587.50;5037097;27;96830;-83
2021/05/23 04:17:53;;;;;;;;;;;;;;;16.58;48.72;100590.19;5038042;27;96814;-85
2021/05/23 04:20:19;;;;;;;;;;;;;;;16.52;48.83;100591.44;5033743;28;98273;-83
2021/05/23 04:22:45;;;;;;;;;;;;;;;16.69;48.06;100587.72;5035469;28;100236;-84
2021/05/23 04:25:13;;;;;;;;;;;;;;;16.69;48.13;100599.25;5042764;27;96691;-83
2021/05/23 04:27:39;;;;;;;;;;;;;;;16.61;48.51;100606.00;5043433;27;96858;-82
2021/05/23 04:30:06;;;;;;;;;;;;;;;16.88;47.74;100601.59;5042145;28;99547;-83
2021/05/23 04:32:32;;;;;;;;;;;;;;;16.64;48.55;100605.84;5042281;28;99220;-82
2021/05/23 04:34:58;;;;;;;;;;;;;;;16.81;47.82;100602.09;5043059;28;96744;-80
2021/05/23 04:37:24;;;;;;;;;;;;;;;16.85;47.89;100612.50;5045418;28;96800;-82
2021/05/23 04:39:50;;;;;;;;;;;;;;;16.69;48.20;100611.75;5051863;27;97864;-83
2021/05/23 04:42:16;;;;;;;;;;;;;;;16.64;48.35;100617.38;5053468;28;97672;-84
2021/05/23 04:44:42;;;;;;;;;;;;;;;16.86;47.80;100621.38;5054358;28;96956;-83
2021/05/23 04:47:07;;;;;;;;;;;;;;;16.70;48.16;100613.47;5051072;27;96744;-82
2021/05/23 04:49:38;;;;;;;;;;;;;;;16.65;48.28;100623.56;5056603;27;99013;-83
2021/05/23 04:52:05;;;;;;;;;;;;;;;17.33;46.93;100620.94;5045963;28;98858;-82
2021/05/23 04:54:31;;;;;;;;;;;;;;;17.28;46.45;100618.59;5042483;27;96760;-82
2021/05/23 04:56:57;;;;;;;;;;;;;;;16.92;47.21;100628.97;5031396;27;96825;-83
2021/05/23 04:59:23;;;;;;;;;;;;;;;16.86;47.08;100630.22;5037072;27;98087;-84
2021/05/23 05:01:48;;;;;;;;;;;;;;;16.87;47.07;100631.91;5037671;28;98825;-83
2021/05/23 05:04:14;;;;;;;;;;;;;;;16.96;46.98;100639.34;5029723;28;97654;-82
2021/05/23 05:06:40;;;;;;;;;;;;;;;16.79;47.32;100644.06;5037109;27;97065;-83
2021/05/23 05:09:06;;;;;;;;;;;;;;;17.03;47.02;100646.03;5035908;28;98837;-82
2021/05/23 05:11:32;;;;;;;;;;;;;;;17.47;46.03;100651.16;5038598;28;97793;-83
2021/05/23 05:14:00;;;;;;;;;;;;;;;17.05;46.48;100652.13;5036806;27;98639;-82
2021/05/23 05:16:26;;;;;;;;;;;;;;;16.76;47.30;100658.44;5031476;28;96721;-83
2021/05/23 05:18:53;;;;;;;;;;;;;;;16.99;46.95;100660.53;5039377;28;98101;-83
2021/05/23 05:21:19;;;;;;;;;;;;;;;17.12;46.84;100653.44;5048445;27;99199;-82
2021/05/23 05:23:44;;;;;;;;;;;;;;;17.25;46.58;100658.88;5045865;27;96724;-82
2021/05/23 05:26:11;;;;;;;;;;;;;;;17.01;46.95;100666.59;5039335;27;96932;-83
2021/05/23 05:28:37;;;;;;;;;;;;;;;17.19;46.69;100667.28;5047642;28;99435;-83
2021/05/23 05:31:03;;;;;;;;;;;;;;;17.06;46.84;100669.88;5047140;27;99152;-82
2021/05/23 05:33:29;;;;;;;;;;;;;;;17.32;46.39;100668.19;5040916;27;96713;-83
2021/05/23 05:35:55;;;;;;;;;;;;;;;17.14;46.22;100680.88;5039351;28;96856;-83
2021/05/23 05:38:21;;;;;;;;;;;;;;;17.26;46.02;100679.28;5039938;28;98964;-80
2021/05/23 05:40:46;;;;;;;;;;;;;;;16.88;47.01;100689.69;5040415;27;98109;-82
2021/05/23 05:43:13;;;;;;;;;;;;;;;17.37;45.74;100687.44;5029585;28;97030;-83
2021/05/23 05:45:39;;;;;;;;;;;;;;;17.66;45.16;100693.56;5044693;28;96904;-86
2021/05/23 05:48:05;;;;;;;;;;;;;;;17.38;45.81;100691.84;5057900;27;97788;-83
2021/05/23 05:50:31;;;;;;;;;;;;;;;17.17;46.21;100692.34;5061278;27;96262;-82
2021/05/23 05:52:57;;;;;;;;;;;;;;;17.20;46.13;100694.84;5062343;27;98266;-80
2021/05/23 05:55:23;;;;;;;;;;;;;;;17.10;46.26;100690.06;5060315;27;96446;-83
2021/05/23 05:57:49;;;;;;;;;;;;;;;17.26;46.60;100689.09;5059168;27;97691;-83
2021/05/23 06:00:16;;;;;;;;;;;;;;;17.48;45.92;100692.94;5059693;27;96761;-83
2021/05/23 06:02:42;;;;;;;;;;;;;;;17.24;46.28;100696.34;5054690;27;96682;-83
2021/05/23 06:05:08;;;;;;;;;;;;;;;17.13;46.68;100715.72;5060578;27;96559;-82
2021/05/23 06:07:34;;;;;;;;;;;;;;;16.90;46.92;100710.94;5061414;27;98319;-83
2021/05/23 06:10:00;;;;;;;;;;;;;;;17.05;46.85;100710.84;5051927;27;97740;-83
2021/05/23 06:12:26;;;;;;;;;;;;;;;17.41;45.83;100706.78;5061718;27;96428;-82
2021/05/23 06:14:52;;;;;;;;;;;;;;;17.10;46.38;100714.09;5057959;27;96669;-83
2021/05/23 06:17:18;;;;;;;;;;;;;;;16.81;47.27;100724.84;5060295;27;97674;-83
2021/05/23 06:19:44;;;;;;;;;;;;;;;16.78;47.44;100725.91;5059823;27;97796;-82
2021/05/23 06:22:10;;;;;;;;;;;;;;;16.81;47.41;100733.72;5056816;27;96779;-82
2021/05/23 06:24:36;;;;;;;;;;;;;;;16.18;48.93;100736.59;5048502;28;96810;-85
2021/05/23 06:27:02;;;;;;;;;;;;;;;16.31;49.13;100742.06;5041897;27;97842;-84
2021/05/23 06:29:27;;;;;;;;;;;;;;;16.19;49.63;100743.66;5041296;27;98400;-85
2021/05/23 06:31:53;;;;;;;;;;;;;;;16.24;49.85;100746.03;5047186;28;96643;-84
2021/05/23 06:34:20;;;;;;;;;;;;;;;16.59;48.98;100741.28;5035370;27;96879;-83
2021/05/23 06:36:46;;;;;;;;;;;;;;;16.25;49.42;100745.09;5035944;28;98049;-84
2021/05/23 06:39:12;;;;;;;;;;;;;;;16.10;50.15;100754.84;5039158;27;98742;-84
2021/05/23 06:41:38;;;;;;;;;;;;;;;16.23;50.11;100747.00;5035584;27;96763;-82
2021/05/23 06:44:04;;;;;;;;;;;;;;;16.46;50.29;100753.66;5040126;28;97019;-82
2021/05/23 06:46:30;;;;;;;;;;;;;;;16.23;50.47;100747.84;5042655;27;97983;-83
2021/05/23 06:48:56;;;;;;;;;;;;;;;15.95;51.50;100745.06;5043785;28;97484;-84
2021/05/23 06:51:22;;;;;;;;;;;;;;;16.19;51.50;100749.00;5043962;27;96641;-82
2021/05/23 06:53:48;;;;;;;;;;;;;;;16.61;50.35;100745.59;5042018;27;96712;-82
2021/05/23 06:56:14;;;;;;;;;;;;;;;16.83;50.17;100746.97;5051677;27;98104;-82
2021/05/23 06:58:41;;;;;;;;;;;;;;;17.06;49.47;100752.63;5051782;27;98841;-83
2021/05/23 07:01:06;;;;;;;;;;;;;;;17.16;48.38;100754.69;5056731;27;96624;-83
2021/05/23 07:03:32;;;;;;;;;;;;;;;17.52;48.21;100745.19;5052812;28;96748;-82
2021/05/23 07:05:58;;;;;;;;;;;;;;;17.61;47.27;100754.47;5056870;27;98219;-83
2021/05/23 07:08:25;;;;;;;;;;;;;;;17.97;46.53;100758.41;5057856;27;97926;-82
2021/05/23 07:10:51;;;;;;;;;;;;;;;18.34;46.09;100760.34;5056707;27;96894;-82
2021/05/23 07:13:16;;;;;;;;;;;;;;;18.75;46.02;100762.91;5051419;27;96900;-83
2021/05/23 07:15:42;;;;;;;;;;;;;;;18.97;45.13;100759.59;5039150;27;98828;-85
2021/05/23 07:18:08;;;;;;;;;;;;;;;18.83;44.82;100751.66;5038705;28;98087;-83
2021/05/23 07:20:34;;;;;;;;;;;;;;;19.03;43.91;100749.28;5036924;27;97122;-84
2021/05/23 07:23:00;;;;;;;;;;;;;;;18.94;42.98;100760.66;5036911;28;96801;-83
2021/05/23 07:25:26;;;;;;;;;;;;;;;19.40;42.16;100747.53;5038214;27;99465;-84
2021/05/23 07:27:52;;;;;;;;;;;;;;;19.33;42.37;100751.63;5039553;27;99069;-83
2021/05/23 07:30:18;;;;;;;;;;;;;;;19.60;41.76;100754.16;5049553;28;97219;-82
2021/05/23 07:32:44;;;;;;;;;;;;;;;19.04;42.90;100763.53;5037225;27;96861;-83
2021/05/23 07:35:10;;;;;;;;;;;;;;;19.49;41.87;100754.09;5038294;27;97790;-82
2021/05/23 07:37:37;;;;;;;;;;;;;;;18.91;43.03;100760.84;5034076;27;96822;-83
2021/05/23 07:40:03;;;;;;;;;;;;;;;19.18;42.02;100747.34;5037187;27;97062;-82
2021/05/23 07:42:29;;;;;;;;;;;;;;;19.44;41.45;100749.00;5033601;27;96831;-83
2021/05/23 07:44:55;;;;;;;;;;;;;;;19.06;41.59;100751.75;5034837;27;97822;-81
2021/05/23 07:47:21;;;;;;;;;;;;;;;19.20;40.97;100756.13;5035691;27;98929;-85
2021/05/23 07:49:47;;;;;;;;;;;;;;;19.19;40.41;100765.13;5035685;27;97071;-82
2021/05/23 07:52:13;;;;;;;;;;;;;;;19.64;40.32;100761.00;5040441;27;96718;-85
2021/05/23 07:54:40;;;;;;;;;;;;;;;19.85;39.13;100761.25;5032399;27;99266;-80
2021/05/23 07:57:07;;;;;;;;;;;;;;;19.54;39.67;100759.97;5026574;28;98709;-81
2021/05/23 07:59:34;;;;;;;;;;;;;;;20.24;38.43;100766.34;5027794;27;97309;-80
2021/05/23 08:01:59;;;;;;;;;;;;;;;19.92;38.49;100762.53;5032636;28;96745;-81
2021/05/23 08:04:25;;;;;;;;;;;;;;;19.89;38.65;100773.47;5045471;27;98776;-82
2021/05/23 08:06:51;;;;;;;;;;;;;;;19.40;39.90;100771.66;5042262;27;98355;-80
2021/05/23 08:09:17;;;;;;;;;;;;;;;19.54;40.01;100775.19;5037158;27;97201;-81
2021/05/23 08:11:43;;;;;;;;;;;;;;;19.71;39.33;100780.19;5039942;27;97209;-81
2021/05/23 08:14:09;;;;;;;;;;;;;;;20.15;39.17;100772.38;5034950;27;98831;-82
2021/05/23 08:16:35;;;;;;;;;;;;;;;19.83;39.78;100782.81;5030968;28;99298;-82
2021/05/23 08:19:02;;;;;;;;;;;;;;;19.35;40.23;100780.97;5033862;27;97135;-83
2021/05/23 08:21:27;;;;;;;;;;;;;;;19.01;40.36;100790.53;5028708;27;98546;-82
2021/05/23 08:23:53;;;;;;;;;;;;;;;18.16;41.66;100782.97;5031292;27;97814;-83
2021/05/23 08:26:19;;;;;;;;;;;;;;;18.97;40.99;100795.22;5034818;27;98800;-84
2021/05/23 08:28:45;;;;;;;;;;;;;;;19.10;41.00;100792.56;5030782;27;98764;-83
2021/05/23 08:31:12;;;;;;;;;;;;;;;19.36;39.76;100788.88;5029751;28;96873;-81
2021/05/23 08:33:39;;;;;;;;;;;;;;;20.95;36.94;100794.88;5033775;27;97869;-83
2021/05/23 08:36:05;;;;;;;;;;;;;;;21.19;36.52;100796.69;5030128;28;98849;-84
2021/05/23 08:38:31;;;;;;;;;;;;;;;21.09;36.24;100791.97;5034847;27;97213;-83
2021/05/23 08:40:57;;;;;;;;;;;;;;;19.56;39.48;100803.56;5032504;28;97384;-84
2021/05/23 08:43:26;;;;;;;;;;;;;;;20.11;38.83;100808.47;5031659;27;101961;-82
2021/05/23 08:45:52;;;;;;;;;;;;;;;20.15;38.42;100809.94;5032964;28;98780;-84
2021/05/23 08:48:18;;;;;;;;;;;;;;;20.11;38.52;100816.50;5031430;27;97413;-82
2021/05/23 08:50:45;;;;;;;;;;;;;;;19.77;39.21;100814.56;5032620;27;96934;-85
2021/05/23 08:53:11;;;;;;;;;;;;;;;20.22;38.64;100808.50;5034733;27;98111;-85
2021/05/23 08:55:38;;;;;;;;;;;;;;;20.15;38.80;100820.66;5035401;27;98896;-84
2021/05/23 08:58:04;;;;;;;;;;;;;;;20.81;37.95;100821.09;5036265;27;98368;-84
2021/05/23 09:00:31;;;;;;;;;;;;;;;20.42;38.58;100827.66;5035389;27;97700;-84
2021/05/23 09:02:58;;;;;;;;;;;;;;;20.01;38.67;100826.22;5028311;27;98917;-84
2021/05/23 09:05:31;;;;;;;;;;;;;;;19.96;38.58;100828.34;5031478;27;98972;-82
2021/05/23 09:07:58;;;;;;;;;;;;;;;19.98;38.83;100838.97;5036663;28;96779;-81
2021/05/23 09:10:25;;;;;;;;;;;;;;;19.69;39.76;100836.56;5032750;27;97583;-82
2021/05/23 09:12:51;;;;;;;;;;;;;;;19.65;39.73;100843.13;5034702;28;98968;-84
2021/05/23 09:15:17;;;;;;;;;;;;;;;20.34;38.52;100835.47;5031553;27;99342;-85
2021/05/23 09:17:43;;;;;;;;;;;;;;;20.25;38.86;100843.19;5025868;28;97442;-83
2021/05/23 09:20:15;;;;;;;;;;;;;;;20.15;38.89;100836.75;5028770;27;97190;-84
2021/05/23 09:22:41;;;;;;;;;;;;;;;20.28;38.74;100840.25;5030234;27;100012;-83
2021/05/23 09:25:10;;;;;;;;;;;;;;;19.98;38.92;100842.53;5029975;27;98936;-84
2021/05/23 09:27:42;;;;;;;;;;;;;;;20.66;37.81;100844.63;5033356;27;97578;-84
2021/05/23 09:30:11;;;;;;;;;;;;;;;20.41;37.92;100844.75;5033613;27;97369;-83
2021/05/23 09:32:37;;;;;;;;;;;;;;;19.68;39.36;100864.38;5037087;27;98907;-85
2021/05/23 09:35:05;;;;;;;;;;;;;;;19.53;39.82;100853.88;5038574;27;101065;-82
2021/05/23 09:37:30;;;;;;;;;;;;;;;19.61;39.31;100856.88;5043817;27;96802;-83
2021/05/23 09:39:56;;;;;;;;;;;;;;;19.83;39.29;100851.66;5039814;27;96902;-83
2021/05/23 09:42:24;;;;;;;;;;;;;;;19.58;39.74;100859.75;5044779;27;99267;-82
2021/05/23 09:44:50;;;;;;;;;;;;;;;19.93;39.40;100859.91;5045181;27;97876;-83
2021/05/23 09:47:16;;;;;;;;;;;;;;;20.18;38.21;100863.38;5048698;27;97057;-82
2021/05/23 09:49:42;;;;;;;;;;;;;;;20.40;37.73;100864.50;5053077;27;96056;-82
2021/05/23 09:52:09;;;;;;;;;;;;;;;20.15;38.08;100863.59;5049899;27;97672;-83
2021/05/23 09:54:43;;;;;;;;;;;;;;;20.83;36.31;100854.06;5056137;27;100904;-83
2021/05/23 09:57:11;;;;;;;;;;;;;;;20.71;36.44;100863.91;5056391;27;97604;-83
2021/05/23 09:59:38;;;;;;;;;;;;;;;21.79;34.84;100860.84;5044983;27;96799;-82
2021/05/23 10:02:05;;;;;;;;;;;;;;;21.46;35.52;100864.38;5031850;27;98870;-82
2021/05/23 10:04:30;;;;;;;;;;;;;;;21.53;35.54;100862.91;5036811;27;98532;-82
2021/05/23 10:06:58;;;;;;;;;;;;;;;21.81;35.06;100875.00;5037586;27;97220;-83
2021/05/23 10:09:24;;;;;;;;;;;;;;;21.63;34.83;100877.34;5034636;28;97232;-83
2021/05/23 10:11:50;;;;;;;;;;;;;;;21.83;33.52;100879.28;5054237;27;98390;-82
2021/05/23 10:14:16;;;;;;;;;;;;;;;21.85;33.78;100874.66;5056042;27;98313;-81
2021/05/23 10:16:43;;;;;;;;;;;;;;;22.63;32.94;100885.28;5051429;27;97106;-82
2021/05/23 10:19:10;;;;;;;;;;;;;;;22.21;33.09;100880.72;5043400;27;97957;-83
2021/05/23 10:21:36;;;;;;;;;;;;;;;21.86;33.81;100878.16;5031631;27;99261;-84
2021/05/23 10:24:03;;;;;;;;;;;;;;;21.33;34.39;100882.44;5037352;27;98847;-83
2021/05/23 10:26:30;;;;;;;;;;;;;;;21.17;34.99;100879.22;5034092;27;96940;-82
2021/05/23 10:28:58;;;;;;;;;;;;;;;22.56;33.26;100883.22;5032196;28;96942;-80
2021/05/23 10:31:27;;;;;;;;;;;;;;;22.45;33.08;100883.25;5029316;27;99061;-82
2021/05/23 10:33:54;;;;;;;;;;;;;;;22.57;33.04;100887.63;5024810;28;98835;-82
2021/05/23 10:36:27;;;;;;;;;;;;;;;22.30;33.17;100888.06;5032167;28;98837;-83
2021/05/23 10:38:54;;;;;;;;;;;;;;;22.72;32.36;100890.84;5034835;27;97400;-81
2021/05/23 10:41:20;;;;;;;;;;;;;;;22.42;31.96;100896.97;5034435;27;97982;-82
2021/05/23 10:43:55;;;;;;;;;;;;;;;22.86;31.22;100898.66;5034035;27;98991;-79
2021/05/23 10:46:21;;;;;;;;;;;;;;;21.90;32.75;100887.72;5036119;27;96890;-83
2021/05/23 10:48:52;;;;;;;;;;;;;;;22.70;31.82;100891.00;5035234;27;97006;-86
2021/05/23 10:51:19;;;;;;;;;;;;;;;22.32;31.79;100902.22;5034054;27;97871;-84
2021/05/23 10:53:45;;;;;;;;;;;;;;;21.99;32.17;100896.94;5035225;28;98948;-82
2021/05/23 10:56:18;;;;;;;;;;;;;;;22.68;31.66;100887.56;5036873;27;97158;-83
2021/05/23 10:58:50;;;;;;;;;;;;;;;21.46;33.47;100902.84;5028751;27;96856;-83
2021/05/23 11:01:18;;;;;;;;;;;;;;;21.15;34.08;100897.25;5036206;27;98942;-85
2021/05/23 11:03:47;;;;;;;;;;;;;;;21.97;33.00;100898.88;5035804;28;98869;-82
2021/05/23 11:06:21;;;;;;;;;;;;;;;22.38;32.50;100901.75;5049042;27;97733;-81
2021/05/23 11:09:02;;;;;;;;;;;;;;;22.16;32.76;100902.66;5055928;27;96770;-81
2021/05/23 11:11:28;;;;;;;;;;;;;;;21.08;34.74;100913.00;5046347;27;97632;-83
2021/05/23 11:13:54;;;;;;;;;;;;;;;21.70;34.00;100910.84;5051045;27;98187;-83
2021/05/23 11:16:20;;;;;;;;;;;;;;;21.23;34.56;100917.22;5047346;27;98000;-81
2021/05/23 11:18:46;;;;;;;;;;;;;;;21.66;34.35;100913.91;5044039;27;97097;-82
2021/05/23 11:21:13;;;;;;;;;;;;;;;21.80;33.97;100919.00;5086268;22;101874;-83
2021/05/23 11:23:45;;;;;;;;;;;;;;;22.46;32.82;100922.63;5029944;28;97638;-82
2021/05/23 11:26:12;;;;;;;;;;;;;;;21.53;34.63;100924.72;5029544;28;97089;-82
2021/05/23 11:28:39;;;;;;;;;;;;;;;22.08;34.22;100923.06;5025498;27;97088;-83
2021/05/23 11:31:05;;;;;;;;;;;;;;;21.98;35.19;100931.06;5017332;28;98233;-83
2021/05/23 11:33:31;;;;;;;;;;;;;;;21.67;35.07;100929.88;5006140;22;99512;-85
2021/05/23 11:35:59;;;;;;;;;;;;;;;20.63;37.43;100926.25;4997367;28;97234;-85
2021/05/23 11:38:33;;;;;;;;;;;;;;;21.15;36.86;100922.28;4998920;28;96898;-84
2021/05/23 11:40:59;;;;;;;;;;;;;;;20.85;37.25;100925.50;4998869;28;98570;-85
2021/05/23 11:43:24;;;;;;;;;;;;;;;21.07;37.28;100922.03;4995441;28;97713;-84
2021/05/23 11:45:55;;;;;;;;;;;;;;;20.08;38.67;100925.88;4996079;28;96735;-85
2021/05/23 11:48:29;;;;;;;;;;;;;;;20.96;36.86;100916.63;4988854;28;96938;-84
2021/05/23 11:50:55;;;;;;;;;;;;;;;21.80;35.28;100924.38;4984098;28;98711;-81
2021/05/23 11:53:21;;;;;;;;;;;;;;;21.82;34.31;100920.63;4990545;28;99006;-80
2021/05/23 11:55:50;;;;;;;;;;;;;;;21.84;34.36;100915.97;4991110;28;97250;-78
2021/05/23 11:58:16;;;;;;;;;;;;;;;21.22;36.18;100920.03;4991380;28;96961;-78
2021/05/23 12:00:41;;;;;;;;;;;;;;;21.09;36.61;100917.41;4993169;28;101906;-80
2021/05/23 12:03:10;;;;;;;;;;;;;;;21.09;35.91;100920.94;4987824;28;98748;-79
2021/05/23 12:05:40;;;;;;;;;;;;;;;21.50;35.19;100941.13;4990196;28;97601;-78
2021/05/23 12:08:18;;;;;;;;;;;;;;;20.81;34.93;100936.56;4988915;28;97501;-79
2021/05/23 12:10:44;;;;;;;;;;;;;;;21.41;34.50;100944.50;4988096;28;99611;-78
2021/05/23 12:13:10;;;;;;;;;;;;;;;21.92;33.47;100936.91;4992202;28;98333;-78
2021/05/23 12:15:36;;;;;;;;;;;;;;;22.48;32.57;100932.31;4989382;28;97291;-79
2021/05/23 12:18:02;;;;;;;;;;;;;;;22.06;33.08;100941.16;4990818;28;97401;-78
2021/05/23 12:20:29;;;;;;;;;;;;;;;22.41;32.52;100933.81;4993350;28;98103;-80
2021/05/23 12:22:55;;;;;;;;;;;;;;;22.58;32.51;100938.63;4997684;28;101286;-81
2021/05/23 12:25:21;;;;;;;;;;;;;;;22.72;32.27;100942.88;5001250;28;96836;-79
2021/05/23 12:27:48;;;;;;;;;;;;;;;22.84;31.99;100941.06;5020114;28;96821;-79
2021/05/23 12:30:15;;;;;;;;;;;;;;;22.72;31.56;100937.50;4987702;28;98393;-78
2021/05/23 12:32:42;;;;;;;;;;;;;;;22.56;31.95;100940.63;4987927;28;99138;-79